Time;durP1;ratioP1;P1;durP2;ratioP2;P2;SDS_P1;SDS_P2;PMS_P1;PMS_P2;Temp;Humidity;BMP_temperature;BMP_pressure;BME280_temperature;BME280_humidity;BME280_pressure;Samples;Min_cycle;Max_cycle;Signal;HPM_P1;HPM_P2
2022/11/06 13:40:05;;;;;;;;;;;;;;;21.76;41.92;98656.69;5112991;23;19926;-70
2022/11/06 13:42:41;;;;;;;;;;;;;;;21.73;41.97;98661.53;4974679;28;19922;-69
2022/11/06 13:45:06;;;;;;;;;;;;;;;21.69;42.64;98666.44;4974785;28;19918;-70
2022/11/06 13:47:35;;;;;;;;;;;;;;;21.64;42.54;98663.53;4974571;28;19925;-69
2022/11/06 13:50:09;;;;;;;;;;;;;;;21.60;42.51;98656.94;4992214;28;20466;-70
2022/11/06 13:52:34;;;;;;;;;;;;;;;21.59;42.99;98663.28;4989514;28;19918;-75
2022/11/06 13:55:15;;;;;;;;;;;;;;;21.56;42.96;98668.97;4991928;28;19918;-71
2022/11/06 13:57:49;;;;;;;;;;;;;;;21.54;42.90;98673.63;4990223;28;19925;-71
2022/11/06 14:00:14;;;;;;;;;;;;;;;21.52;43.10;98665.03;4989621;28;19924;-74
2022/11/06 14:02:45;;;;;;;;;;;;;;;21.50;43.05;98667.88;4989501;28;20008;-74
2022/11/06 14:05:30;;;;;;;;;;;;;;;21.49;42.75;98674.19;4974047;28;20381;-77
2022/11/06 14:07:55;;;;;;;;;;;;;;;21.41;41.88;98671.63;4970713;28;19992;-81
2022/11/06 14:10:41;;;;;;;;;;;;;;;21.36;42.10;98669.53;4956974;28;20400;-79
2022/11/06 14:13:07;;;;;;;;;;;;;;;21.27;41.79;98674.16;4973336;28;20016;-80
2022/11/06 14:15:33;;;;;;;;;;;;;;;21.21;42.02;98674.09;4973958;28;19922;-80
2022/11/06 14:17:59;;;;;;;;;;;;;;;21.14;42.13;98676.66;4973468;28;19918;-82
2022/11/06 14:20:35;;;;;;;;;;;;;;;21.09;42.16;98674.56;4957553;28;19918;-82
2022/11/06 14:23:19;;;;;;;;;;;;;;;21.03;42.26;98685.94;4973339;28;20336;-79
2022/11/06 14:25:52;;;;;;;;;;;;;;;20.99;42.62;98683.84;4990190;28;19953;-78
2022/11/06 14:28:27;;;;;;;;;;;;;;;20.92;42.88;98683.72;4971554;28;19917;-78
2022/11/06 14:30:52;;;;;;;;;;;;;;;20.84;43.21;98682.03;4974146;28;19925;-79
2022/11/06 14:33:36;;;;;;;;;;;;;;;20.77;43.75;98679.28;4959968;28;19918;-80
2022/11/06 14:36:11;;;;;;;;;;;;;;;20.73;44.37;98680.66;4980275;28;19933;-79
2022/11/06 14:38:36;;;;;;;;;;;;;;;20.65;44.58;98680.72;4975287;28;19926;-77
2022/11/06 14:41:04;;;;;;;;;;;;;;;20.60;45.04;98675.97;4985870;28;19918;-79
2022/11/06 14:43:35;;;;;;;;;;;;;;;20.55;45.41;98680.16;4969244;28;19918;-77
2022/11/06 14:46:05;;;;;;;;;;;;;;;20.52;45.81;98677.88;4969113;28;19925;-77
2022/11/06 14:48:31;;;;;;;;;;;;;;;20.50;46.17;98688.66;5001408;28;20301;-77
2022/11/06 14:50:57;;;;;;;;;;;;;;;20.43;46.27;98682.47;4969355;28;19980;-78
2022/11/06 14:53:23;;;;;;;;;;;;;;;20.38;46.53;98672.41;4985449;28;20352;-77
2022/11/06 14:55:56;;;;;;;;;;;;;;;20.34;46.71;98687.00;4988545;28;19929;-91
2022/11/06 14:58:24;;;;;;;;;;;;;;;20.30;47.10;98680.41;5004589;28;19965;-92
2022/11/06 15:00:51;;;;;;;;;;;;;;;20.26;47.40;98695.06;4988876;28;19941;-91
2022/11/06 15:03:21;;;;;;;;;;;;;;;20.21;47.35;98686.81;4975271;28;19941;-73
2022/11/06 15:05:46;;;;;;;;;;;;;;;20.14;47.82;98681.41;4993754;28;19933;-73
2022/11/06 15:08:11;;;;;;;;;;;;;;;20.12;48.07;98691.38;4985081;28;19920;-84
2022/11/06 15:10:43;;;;;;;;;;;;;;;20.03;48.40;98687.94;4972042;28;19969;-80
2022/11/06 15:13:08;;;;;;;;;;;;;;;20.01;48.95;98692.63;4994595;28;19936;-79
2022/11/06 15:15:34;;;;;;;;;;;;;;;19.96;49.05;98694.97;4985085;28;19922;-76
2022/11/06 15:17:59;;;;;;;;;;;;;;;19.91;49.22;98694.69;4984994;28;19918;-78
2022/11/06 15:20:25;;;;;;;;;;;;;;;19.88;49.57;98692.41;4985000;28;19924;-76
2022/11/06 15:22:54;;;;;;;;;;;;;;;19.83;49.80;98705.34;4985244;28;20372;-77
2022/11/06 15:25:20;;;;;;;;;;;;;;;19.78;50.17;98697.09;4984191;28;19925;-77
2022/11/06 15:28:09;;;;;;;;;;;;;;;19.74;50.32;98704.56;4983616;28;19982;-78
2022/11/06 15:30:51;;;;;;;;;;;;;;;19.71;50.40;98700.44;4986042;28;19922;-79
2022/11/06 15:33:18;;;;;;;;;;;;;;;19.68;50.75;98710.56;4985146;28;19918;-80
2022/11/06 15:35:44;;;;;;;;;;;;;;;19.63;51.06;98713.72;4984077;28;19926;-78
2022/11/06 15:38:11;;;;;;;;;;;;;;;19.52;51.45;98722.91;4983399;28;19933;-79
2022/11/06 15:40:37;;;;;;;;;;;;;;;19.49;51.52;98719.78;4968753;28;19918;-75
2022/11/06 15:43:06;;;;;;;;;;;;;;;19.41;51.74;98728.59;4966809;28;19918;-76
2022/11/06 15:45:31;;;;;;;;;;;;;;;19.39;51.97;98738.53;4967776;28;19965;-76
2022/11/06 15:47:58;;;;;;;;;;;;;;;19.34;52.13;98736.41;4984597;28;20009;-75
2022/11/06 15:50:24;;;;;;;;;;;;;;;19.34;52.04;98754.94;4984357;28;19922;-78
2022/11/06 15:52:49;;;;;;;;;;;;;;;19.31;52.18;98750.00;4967592;28;20412;-77
2022/11/06 15:55:23;;;;;;;;;;;;;;;19.28;52.27;98750.34;4984040;28;19984;-76
2022/11/06 15:57:49;;;;;;;;;;;;;;;19.25;52.57;98758.63;4993513;28;20008;-76
2022/11/06 16:00:24;;;;;;;;;;;;;;;19.23;52.56;98754.47;4978805;28;19973;-77
2022/11/06 16:02:49;;;;;;;;;;;;;;;19.15;52.72;98758.81;4985133;28;19968;-76
2022/11/06 16:05:15;;;;;;;;;;;;;;;19.14;52.83;98759.00;4995474;28;19961;-76
2022/11/06 16:07:40;;;;;;;;;;;;;;;19.11;53.02;98768.09;4993755;28;19925;-80
2022/11/06 16:10:06;;;;;;;;;;;;;;;19.08;53.10;98770.25;4993468;28;19922;-76
2022/11/06 16:12:31;;;;;;;;;;;;;;;19.05;53.25;98775.91;4993550;28;19922;-79
2022/11/06 16:14:56;;;;;;;;;;;;;;;19.06;53.23;98774.91;4993462;28;19918;-79
2022/11/06 16:17:22;;;;;;;;;;;;;;;19.04;53.39;98779.53;4994719;28;19925;-78
2022/11/06 16:19:48;;;;;;;;;;;;;;;19.01;53.32;98775.41;4993671;28;19948;-80
2022/11/06 16:22:18;;;;;;;;;;;;;;;19.00;53.53;98776.41;5009610;28;19918;-77
2022/11/06 16:24:45;;;;;;;;;;;;;;;19.00;53.28;98776.41;5009956;28;20016;-77
2022/11/06 16:27:10;;;;;;;;;;;;;;;18.97;53.62;98788.13;4993020;28;19922;-78
2022/11/06 16:29:36;;;;;;;;;;;;;;;18.94;53.79;98791.16;5009592;28;20406;-81
2022/11/06 16:32:03;;;;;;;;;;;;;;;18.92;53.91;98800.22;4992580;28;20021;-79
2022/11/06 16:34:31;;;;;;;;;;;;;;;18.89;54.02;98796.09;4993376;28;19925;-77
2022/11/06 16:36:57;;;;;;;;;;;;;;;18.87;54.09;98805.22;4994307;28;20024;-77
2022/11/06 16:39:29;;;;;;;;;;;;;;;18.82;54.24;98808.34;4993893;28;19926;-77
2022/11/06 16:42:02;;;;;;;;;;;;;;;18.80;54.28;98802.38;5010563;28;19918;-76
2022/11/06 16:44:28;;;;;;;;;;;;;;;18.79;54.29;98804.19;5009958;28;19929;-76
2022/11/06 16:47:08;;;;;;;;;;;;;;;18.78;54.32;98812.28;4993692;28;19918;-78
2022/11/06 16:49:34;;;;;;;;;;;;;;;18.73;54.47;98814.63;4994900;28;19918;-78
2022/11/06 16:52:00;;;;;;;;;;;;;;;18.70;54.35;98817.59;4993458;28;19924;-76
2022/11/06 16:54:27;;;;;;;;;;;;;;;18.69;54.41;98818.59;4992630;28;20443;-76
2022/11/06 16:56:53;;;;;;;;;;;;;;;18.67;54.29;98823.22;4994473;28;19918;-77
2022/11/06 16:59:21;;;;;;;;;;;;;;;18.66;54.72;98821.56;4993300;28;20411;-78
2022/11/06 17:01:47;;;;;;;;;;;;;;;18.66;54.66;98825.06;4993233;28;20024;-78
2022/11/06 17:04:23;;;;;;;;;;;;;;;18.65;54.54;98826.03;5009203;28;20002;-79
2022/11/06 17:06:49;;;;;;;;;;;;;;;18.65;54.90;98825.22;5009521;28;20439;-78
2022/11/06 17:09:33;;;;;;;;;;;;;;;18.63;55.06;98834.13;5009299;28;19918;-77
2022/11/06 17:11:59;;;;;;;;;;;;;;;18.62;55.00;98824.53;4992999;28;19924;-76
2022/11/06 17:14:24;;;;;;;;;;;;;;;18.60;54.76;98823.88;5009696;28;20008;-78
2022/11/06 17:16:50;;;;;;;;;;;;;;;18.57;54.75;98836.63;5009378;28;19948;-76
2022/11/06 17:19:16;;;;;;;;;;;;;;;18.53;54.78;98837.94;5009305;28;20316;-73
2022/11/06 17:21:41;;;;;;;;;;;;;;;18.52;54.69;98836.28;5009507;28;19988;-72
2022/11/06 17:24:06;;;;;;;;;;;;;;;18.49;54.84;98836.63;4994400;28;20392;-73
2022/11/06 17:26:32;;;;;;;;;;;;;;;18.47;54.66;98842.06;4992741;28;19972;-73
2022/11/06 17:28:57;;;;;;;;;;;;;;;18.48;54.68;98851.63;4994297;28;20016;-73
2022/11/06 17:31:23;;;;;;;;;;;;;;;18.47;54.52;98850.00;4993966;28;19918;-77
2022/11/06 17:33:48;;;;;;;;;;;;;;;18.43;54.61;98848.66;5008707;28;20411;-73
2022/11/06 17:36:16;;;;;;;;;;;;;;;18.41;54.55;98854.13;5009104;28;20351;-78
2022/11/06 17:38:41;;;;;;;;;;;;;;;18.39;54.54;98855.25;4991774;28;19926;-73
2022/11/06 17:41:07;;;;;;;;;;;;;;;18.37;54.55;98849.31;4991714;28;20068;-76
2022/11/06 17:43:32;;;;;;;;;;;;;;;18.33;54.56;98853.28;5008617;28;19964;-80
2022/11/06 17:45:57;;;;;;;;;;;;;;;18.34;54.50;98857.59;4991997;28;20000;-79
2022/11/06 17:48:23;;;;;;;;;;;;;;;18.33;54.61;98861.19;4991595;28;19918;-79
2022/11/06 17:53:32;;;;;;;;;;;;;;;18.31;54.51;98868.47;5005690;28;19925;-82
2022/11/06 17:56:00;;;;;;;;;;;;;;;18.31;54.81;98871.13;4993364;28;19922;-74
2022/11/06 17:58:25;;;;;;;;;;;;;;;18.30;54.53;98874.78;4991363;28;20403;-72
2022/11/06 18:00:51;;;;;;;;;;;;;;;18.30;54.56;98877.41;4992816;28;20060;-77
2022/11/06 18:03:19;;;;;;;;;;;;;;;18.26;54.48;98887.47;4975010;28;19922;-69
2022/11/06 18:05:45;;;;;;;;;;;;;;;18.26;54.43;98885.66;4991475;28;19918;-68
2022/11/06 18:08:11;;;;;;;;;;;;;;;18.25;54.40;98881.34;4992416;28;19918;-69
2022/11/06 18:10:36;;;;;;;;;;;;;;;18.23;54.27;98878.06;4975339;28;19918;-69
2022/11/06 18:13:01;;;;;;;;;;;;;;;18.20;54.37;98882.81;4975480;28;19941;-69
2022/11/06 18:15:27;;;;;;;;;;;;;;;18.18;54.37;98890.91;4959041;28;19918;-69
2022/11/06 18:17:52;;;;;;;;;;;;;;;18.10;54.39;98893.53;4975026;28;20285;-71
2022/11/06 18:20:17;;;;;;;;;;;;;;;18.05;54.61;98885.28;4958463;28;20001;-70
2022/11/06 18:22:43;;;;;;;;;;;;;;;18.04;54.54;98886.25;4975119;28;20293;-69
2022/11/06 18:25:08;;;;;;;;;;;;;;;18.02;54.41;98877.69;4974656;28;19918;-72
2022/11/06 18:27:33;;;;;;;;;;;;;;;17.99;54.40;98876.19;4992574;28;20013;-74
2022/11/06 18:29:59;;;;;;;;;;;;;;;18.07;56.42;98875.38;4958953;28;20012;-76
2022/11/06 18:32:24;;;;;;;;;;;;;;;18.09;55.87;98878.69;4974859;28;19956;-74
2022/11/06 18:34:49;;;;;;;;;;;;;;;18.08;55.28;98890.25;4974939;28;19925;-72
2022/11/06 18:37:14;;;;;;;;;;;;;;;18.05;55.10;98893.19;4975208;28;19918;-70
2022/11/06 18:39:40;;;;;;;;;;;;;;;18.02;55.08;98886.41;4953165;28;19965;-70
2022/11/06 18:42:05;;;;;;;;;;;;;;;18.01;54.73;98889.22;4988190;28;20333;-74
2022/11/06 18:44:33;;;;;;;;;;;;;;;18.00;54.67;98896.31;4987668;28;19942;-73
2022/11/06 18:46:59;;;;;;;;;;;;;;;17.98;54.67;98893.03;4957194;28;19929;-73
2022/11/06 18:49:24;;;;;;;;;;;;;;;17.97;54.64;98896.66;4972155;28;19922;-72
2022/11/06 18:51:49;;;;;;;;;;;;;;;17.96;54.57;98900.25;4973904;28;19945;-80
2022/11/06 18:54:15;;;;;;;;;;;;;;;17.96;54.50;98907.38;4973698;28;19922;-85
2022/11/06 18:56:40;;;;;;;;;;;;;;;17.93;54.34;98903.22;4982514;28;20409;-84
2022/11/06 18:59:07;;;;;;;;;;;;;;;17.91;54.29;98902.56;4987246;28;20473;-89
2022/11/06 19:01:34;;;;;;;;;;;;;;;17.89;54.32;98910.66;4990383;28;19929;-83
2022/11/06 19:03:59;;;;;;;;;;;;;;;17.87;54.30;98917.06;4971651;28;19934;-79
2022/11/06 19:06:24;;;;;;;;;;;;;;;17.84;54.48;98907.63;4953584;28;19918;-78
2022/11/06 19:08:49;;;;;;;;;;;;;;;17.83;54.57;98910.44;4951980;28;19918;-78
2022/11/06 19:11:15;;;;;;;;;;;;;;;17.81;54.60;98921.16;4953493;28;20374;-79
2022/11/06 19:13:41;;;;;;;;;;;;;;;17.80;54.59;98924.78;4937186;28;20388;-79
2022/11/06 19:16:06;;;;;;;;;;;;;;;17.80;54.46;98918.66;4953003;28;19919;-79
2022/11/06 19:18:33;;;;;;;;;;;;;;;17.79;54.53;98924.94;4937957;28;19925;-77
2022/11/06 19:21:01;;;;;;;;;;;;;;;17.77;54.51;98924.28;4940569;28;19918;-78
2022/11/06 19:23:27;;;;;;;;;;;;;;;17.75;54.66;98919.16;4940493;28;19922;-78
2022/11/06 19:25:52;;;;;;;;;;;;;;;17.73;54.72;98923.78;4956715;28;19929;-77
2022/11/06 19:28:18;;;;;;;;;;;;;;;17.71;54.74;98920.44;4940834;28;19985;-78
2022/11/06 19:30:43;;;;;;;;;;;;;;;17.72;54.69;98930.03;4956616;28;20316;-77
2022/11/06 19:33:08;;;;;;;;;;;;;;;17.67;54.69;98930.50;4939481;28;20005;-73
2022/11/06 19:35:35;;;;;;;;;;;;;;;17.66;54.70;98933.28;4972141;28;19925;-79
2022/11/06 19:38:03;;;;;;;;;;;;;;;17.64;54.65;98935.28;4994183;28;19917;-84
2022/11/06 19:40:28;;;;;;;;;;;;;;;17.61;54.77;98940.88;4975711;28;19999;-72
2022/11/06 19:42:54;;;;;;;;;;;;;;;17.60;54.98;98941.84;4994093;28;20436;-75
2022/11/06 19:45:20;;;;;;;;;;;;;;;17.56;54.98;98936.06;4993141;28;19922;-72
2022/11/06 19:47:46;;;;;;;;;;;;;;;17.57;54.70;98936.88;4993084;28;19917;-70
2022/11/06 19:50:11;;;;;;;;;;;;;;;17.54;54.83;98938.84;4993775;28;19949;-69
2022/11/06 19:52:36;;;;;;;;;;;;;;;17.53;54.92;98941.66;4993850;28;19918;-71
2022/11/06 19:55:02;;;;;;;;;;;;;;;17.51;54.84;98951.53;4992293;28;19933;-78
2022/11/06 19:57:27;;;;;;;;;;;;;;;17.52;54.88;98955.81;4976501;28;19918;-76
2022/11/06 19:59:53;;;;;;;;;;;;;;;17.48;54.83;98959.75;4985166;28;19925;-75
2022/11/06 20:02:18;;;;;;;;;;;;;;;17.47;54.81;98966.88;4974204;28;19925;-77
2022/11/06 20:04:43;;;;;;;;;;;;;;;17.46;54.67;98969.66;4956969;28;19924;-78
2022/11/06 20:07:09;;;;;;;;;;;;;;;17.44;54.74;98969.81;4973314;28;19968;-74
2022/11/06 20:09:34;;;;;;;;;;;;;;;17.43;54.96;98968.16;4956589;28;19918;-76
2022/11/06 20:12:00;;;;;;;;;;;;;;;17.43;54.75;98962.06;4956930;28;19977;-77
2022/11/06 20:14:25;;;;;;;;;;;;;;;17.43;54.94;98967.31;4956744;28;19919;-77
2022/11/06 20:16:51;;;;;;;;;;;;;;;17.42;54.75;98965.66;4973358;28;19922;-80
2022/11/06 20:19:16;;;;;;;;;;;;;;;17.43;54.96;98969.97;4962339;28;19949;-76
2022/11/06 20:21:41;;;;;;;;;;;;;;;17.43;54.71;98973.44;4992168;28;20308;-77
2022/11/06 20:24:07;;;;;;;;;;;;;;;17.44;54.67;98967.19;4958885;28;19945;-77
2022/11/06 20:26:32;;;;;;;;;;;;;;;17.45;54.53;98968.00;4976367;28;20036;-76
2022/11/06 20:28:57;;;;;;;;;;;;;;;17.45;54.61;98968.81;4975649;28;19918;-76
2022/11/06 20:31:23;;;;;;;;;;;;;;;17.45;54.45;98968.81;4975882;28;19924;-76
2022/11/06 20:33:48;;;;;;;;;;;;;;;17.47;54.35;98963.38;4976478;28;20527;-77
2022/11/06 20:36:18;;;;;;;;;;;;;;;17.46;54.27;98970.47;4974829;28;19918;-78
2022/11/06 20:38:43;;;;;;;;;;;;;;;17.48;54.16;98963.22;4975481;28;19922;-78
2022/11/06 20:41:09;;;;;;;;;;;;;;;17.50;54.06;98966.53;4991603;28;19917;-74
2022/11/06 20:43:34;;;;;;;;;;;;;;;17.51;53.99;98964.72;4976036;28;19961;-76
2022/11/06 20:46:00;;;;;;;;;;;;;;;17.50;53.88;98970.97;4975503;28;19918;-75
2022/11/06 20:48:25;;;;;;;;;;;;;;;17.52;53.87;98967.22;4992253;28;20312;-76
2022/11/06 20:50:57;;;;;;;;;;;;;;;17.52;53.72;98969.00;4993027;28;20410;-76
2022/11/06 20:53:22;;;;;;;;;;;;;;;17.53;53.61;98966.22;4992731;28;20388;-75
2022/11/06 20:55:47;;;;;;;;;;;;;;;17.53;53.59;98970.69;4977632;28;19976;-74
2022/11/06 20:58:13;;;;;;;;;;;;;;;17.54;53.51;98969.69;4975094;28;19918;-75
2022/11/06 21:00:38;;;;;;;;;;;;;;;17.54;53.34;98970.53;4992002;28;20012;-74
2022/11/06 21:03:03;;;;;;;;;;;;;;;17.55;53.51;98963.41;4993280;28;20309;-75
2022/11/06 21:05:28;;;;;;;;;;;;;;;17.55;53.38;98968.69;4993026;28;19955;-75
2022/11/06 21:07:54;;;;;;;;;;;;;;;17.54;53.32;98965.25;4974986;28;20402;-76
2022/11/06 21:10:19;;;;;;;;;;;;;;;17.53;53.32;98968.84;4975121;28;20372;-76
2022/11/06 21:12:44;;;;;;;;;;;;;;;17.53;53.22;98971.50;4975230;28;20423;-77
2022/11/06 21:15:10;;;;;;;;;;;;;;;17.53;53.23;98979.41;4991271;28;19921;-76
2022/11/06 21:17:39;;;;;;;;;;;;;;;17.53;53.14;98974.13;4975629;28;20041;-76
2022/11/06 21:20:04;;;;;;;;;;;;;;;17.50;53.32;98974.44;4992104;28;19940;-75
2022/11/06 21:22:29;;;;;;;;;;;;;;;17.50;53.08;98974.44;4991164;28;20376;-76
2022/11/06 21:24:55;;;;;;;;;;;;;;;17.49;53.27;98979.88;4974641;28;19922;-75
2022/11/06 21:27:20;;;;;;;;;;;;;;;17.48;53.22;98975.59;4992582;28;19957;-76
2022/11/06 21:29:45;;;;;;;;;;;;;;;17.47;53.04;98977.41;4987350;28;20304;-75
2022/11/06 21:32:11;;;;;;;;;;;;;;;17.46;53.00;98969.66;4988133;28;19922;-76
2022/11/06 21:34:36;;;;;;;;;;;;;;;17.46;52.82;98973.13;4987951;28;19939;-76
2022/11/06 21:37:01;;;;;;;;;;;;;;;17.45;52.84;98984.66;4972628;28;19926;-75
2022/11/06 21:39:27;;;;;;;;;;;;;;;17.46;52.78;98977.56;4987628;28;20364;-76
2022/11/06 21:41:52;;;;;;;;;;;;;;;17.43;52.85;98981.34;4973136;28;19918;-76
2022/11/06 21:44:17;;;;;;;;;;;;;;;17.43;52.67;98976.06;4972787;28;19993;-75
2022/11/06 21:46:43;;;;;;;;;;;;;;;17.42;52.71;98974.41;4973069;28;19925;-76
2022/11/06 21:49:10;;;;;;;;;;;;;;;17.42;52.79;98979.66;4971882;28;21338;-76
2022/11/06 21:51:36;;;;;;;;;;;;;;;17.41;52.85;98970.13;4989329;28;19960;-75
2022/11/06 21:56:45;;;;;;;;;;;;;;;17.39;52.58;98966.78;4974287;28;20006;-74
2022/11/06 21:59:11;;;;;;;;;;;;;;;17.39;52.49;98976.53;4972741;28;19961;-74
2022/11/06 22:01:36;;;;;;;;;;;;;;;17.36;52.52;98975.84;4956574;28;19994;-74
2022/11/06 22:04:02;;;;;;;;;;;;;;;17.34;52.42;98971.72;4974967;28;19922;-74
2022/11/06 22:06:27;;;;;;;;;;;;;;;17.32;52.69;98965.78;4976130;28;19957;-74
2022/11/06 22:08:53;;;;;;;;;;;;;;;17.30;52.52;98978.25;4992698;28;19951;-75
2022/11/06 22:11:19;;;;;;;;;;;;;;;17.30;52.37;98975.63;4992319;28;19918;-74
2022/11/06 22:13:45;;;;;;;;;;;;;;;17.27;52.41;98979.41;4993647;28;19949;-74
2022/11/06 22:16:10;;;;;;;;;;;;;;;17.27;52.14;98984.69;4992327;28;19922;-74
2022/11/06 22:18:36;;;;;;;;;;;;;;;17.22;52.18;98971.16;4992529;28;19969;-73
2022/11/06 22:21:08;;;;;;;;;;;;;;;17.21;52.27;98980.03;4992134;28;19925;-74
2022/11/06 22:23:33;;;;;;;;;;;;;;;17.16;52.43;98980.50;4993689;28;19921;-73
2022/11/06 22:25:59;;;;;;;;;;;;;;;17.15;52.29;98973.56;4975590;28;19918;-74
2022/11/06 22:28:24;;;;;;;;;;;;;;;17.13;52.12;98970.25;4993188;28;19979;-74
2022/11/06 22:30:49;;;;;;;;;;;;;;;17.12;52.04;98971.22;4992176;28;19967;-74
2022/11/06 22:33:15;;;;;;;;;;;;;;;17.13;52.31;98966.78;4993060;28;20273;-75
2022/11/06 22:35:40;;;;;;;;;;;;;;;17.09;52.25;98970.69;4992120;28;19925;-75
2022/11/06 22:38:08;;;;;;;;;;;;;;;17.08;52.32;98976.94;4975533;28;19917;-74
2022/11/06 22:40:34;;;;;;;;;;;;;;;17.07;52.20;98973.50;4988187;28;19928;-75
2022/11/06 22:42:59;;;;;;;;;;;;;;;17.06;51.93;98974.47;4973590;28;19918;-75
2022/11/06 22:45:24;;;;;;;;;;;;;;;17.04;52.21;98976.44;4972473;28;20345;-75
2022/11/06 22:47:50;;;;;;;;;;;;;;;17.03;52.11;98979.22;4988641;28;19924;-74
2022/11/06 22:50:15;;;;;;;;;;;;;;;17.03;52.15;98980.06;4988888;28;20393;-75
2022/11/06 22:52:40;;;;;;;;;;;;;;;17.03;51.98;98981.84;4988800;28;19924;-74
2022/11/06 22:55:06;;;;;;;;;;;;;;;17.01;52.04;98987.28;4976236;28;19925;-74
2022/11/06 22:57:31;;;;;;;;;;;;;;;17.00;52.05;98989.09;4977905;28;19988;-74
2022/11/06 22:59:56;;;;;;;;;;;;;;;16.98;51.98;98995.50;4977651;28;19925;-74
2022/11/06 23:02:21;;;;;;;;;;;;;;;16.98;51.96;98998.13;4977409;28;19929;-74
2022/11/06 23:04:47;;;;;;;;;;;;;;;16.99;52.08;99000.63;4976015;28;20004;-74
2022/11/06 23:07:12;;;;;;;;;;;;;;;16.98;51.92;98998.13;4977658;28;20393;-73
2022/11/06 23:09:37;;;;;;;;;;;;;;;16.99;51.90;99005.06;4977282;28;19918;-73
2022/11/06 23:12:03;;;;;;;;;;;;;;;17.00;51.81;99007.56;4959354;28;20308;-74
2022/11/06 23:14:29;;;;;;;;;;;;;;;17.02;51.90;99011.88;4977142;28;20013;-74
2022/11/06 23:16:57;;;;;;;;;;;;;;;17.05;51.87;99008.94;4992403;28;20014;-74
2022/11/06 23:19:23;;;;;;;;;;;;;;;17.06;51.76;99015.84;4991726;28;20389;-74
2022/11/06 23:21:48;;;;;;;;;;;;;;;17.07;51.76;99012.25;4991835;28;19919;-74
2022/11/06 23:24:13;;;;;;;;;;;;;;;17.07;51.78;99018.31;4975739;28;20001;-74
2022/11/06 23:26:40;;;;;;;;;;;;;;;17.07;51.85;99015.69;4991992;28;20403;-74
2022/11/06 23:29:05;;;;;;;;;;;;;;;17.08;51.73;99019.16;4991772;28;19918;-73
2022/11/06 23:31:30;;;;;;;;;;;;;;;17.09;51.65;99020.81;4975580;28;20618;-74
2022/11/06 23:33:56;;;;;;;;;;;;;;;17.10;51.80;99017.22;4975824;28;19922;-74
2022/11/06 23:36:21;;;;;;;;;;;;;;;17.11;51.43;99013.56;4976562;28;19922;-74
2022/11/06 23:38:46;;;;;;;;;;;;;;;17.12;51.75;99018.69;4976359;28;20460;-74
2022/11/06 23:43:58;;;;;;;;;;;;;;;17.14;51.71;99023.81;4989646;28;19924;-74
2022/11/06 23:46:25;;;;;;;;;;;;;;;17.15;51.65;99026.31;4975303;28;20300;-74
2022/11/06 23:48:50;;;;;;;;;;;;;;;17.17;51.58;99029.63;4975214;28;19918;-74
2022/11/06 23:51:15;;;;;;;;;;;;;;;17.18;51.49;99028.63;4991344;28;20400;-74
2022/11/06 23:53:41;;;;;;;;;;;;;;;17.21;51.42;99029.34;4991109;28;19922;-73
2022/11/06 23:56:06;;;;;;;;;;;;;;;17.21;51.50;99040.72;4976738;28;19961;-73
2022/11/06 23:58:32;;;;;;;;;;;;;;;17.23;51.52;99040.56;4958318;28;20009;-73
